Time;durP1;ratioP1;P1;durP2;ratioP2;P2;SDS_P1;SDS_P2;PMS_P1;PMS_P2;Temp;Humidity;BMP_temperature;BMP_pressure;BME280_temperature;BME280_humidity;BME280_pressure;Samples;Min_cycle;Max_cycle;Signal;HPM_P1;HPM_P2
2023/04/08 00:01:18;;;;;;;12.20;9.93;;;;;;;;;;5061426;28;20357;-63
2023/04/08 00:03:44;;;;;;;12.23;10.20;;;;;;;;;;5071278;28;20031;-64
2023/04/08 00:06:10;;;;;;;14.18;10.35;;;;;;;;;;5070271;28;20036;-64
2023/04/08 00:08:35;;;;;;;12.25;10.00;;;;;;;;;;5067238;28;20059;-61
2023/04/08 00:11:01;;;;;;;11.20;9.65;;;;;;;;;;5067271;28;20474;-61
2023/04/08 00:13:26;;;;;;;12.55;9.50;;;;;;;;;;5065916;28;20031;-62
2023/04/08 00:15:52;;;;;;;11.93;9.77;;;;;;;;;;5071205;28;20069;-61
2023/04/08 00:18:17;;;;;;;11.82;9.70;;;;;;;;;;5073057;28;20044;-62
2023/04/08 00:20:43;;;;;;;12.88;10.43;;;;;;;;;;5067270;28;20037;-61
2023/04/08 00:23:09;;;;;;;12.13;9.90;;;;;;;;;;5069152;28;20518;-61
2023/04/08 00:25:35;;;;;;;11.95;9.60;;;;;;;;;;5072672;28;20564;-65
2023/04/08 00:28:00;;;;;;;12.02;9.68;;;;;;;;;;5066340;28;20028;-63
2023/04/08 00:30:27;;;;;;;12.00;9.32;;;;;;;;;;5066659;28;20032;-63
2023/04/08 00:32:53;;;;;;;11.52;9.05;;;;;;;;;;5065963;28;20040;-63
2023/04/08 00:35:18;;;;;;;11.70;9.45;;;;;;;;;;5066573;28;20026;-64
2023/04/08 00:37:44;;;;;;;10.77;8.93;;;;;;;;;;5066772;28;20032;-64
2023/04/08 00:40:11;;;;;;;12.52;9.10;;;;;;;;;;5073664;28;20404;-61
2023/04/08 00:42:37;;;;;;;10.45;8.90;;;;;;;;;;5071902;28;20059;-61
2023/04/08 00:45:03;;;;;;;11.63;8.85;;;;;;;;;;5073623;28;20020;-63
2023/04/08 00:47:29;;;;;;;10.75;8.90;;;;;;;;;;5068307;28;20039;-63
2023/04/08 00:49:54;;;;;;;11.48;9.25;;;;;;;;;;5066790;28;20025;-61
2023/04/08 00:52:20;;;;;;;10.90;9.43;;;;;;;;;;5064046;28;20614;-61
2023/04/08 00:54:46;;;;;;;11.90;8.68;;;;;;;;;;5072643;28;20058;-63
2023/04/08 00:57:11;;;;;;;9.50;8.30;;;;;;;;;;5074625;28;20027;-65
2023/04/08 00:59:37;;;;;;;10.23;8.82;;;;;;;;;;5073270;28;20029;-63
2023/04/08 01:02:06;;;;;;;11.52;9.32;;;;;;;;;;5068285;28;20391;-62
2023/04/08 01:04:50;;;;;;;11.88;8.27;;;;;;;;;;5065104;28;20029;-63
2023/04/08 01:07:35;;;;;;;10.95;8.55;;;;;;;;;;5070144;28;20383;-64
2023/04/08 01:10:32;;;;;;;9.60;7.80;;;;;;;;;;5074136;28;20020;-61
2023/04/08 01:13:05;;;;;;;10.52;8.45;;;;;;;;;;5074576;28;20075;-62
2023/04/08 01:15:34;;;;;;;10.60;8.65;;;;;;;;;;5074105;28;20032;-64
2023/04/08 01:18:04;;;;;;;12.10;8.43;;;;;;;;;;5073811;28;20028;-61
2023/04/08 01:20:30;;;;;;;9.57;8.52;;;;;;;;;;5074404;28;20384;-63
2023/04/08 01:22:59;;;;;;;10.50;7.95;;;;;;;;;;5074238;28;20032;-63
2023/04/08 01:25:35;;;;;;;10.07;8.27;;;;;;;;;;5074072;28;20056;-61
2023/04/08 01:28:14;;;;;;;10.85;8.90;;;;;;;;;;5075111;28;20027;-65
2023/04/08 01:30:41;;;;;;;11.48;8.80;;;;;;;;;;5091345;28;20094;-63
2023/04/08 01:33:10;;;;;;;11.07;8.40;;;;;;;;;;5073142;28;20102;-62
2023/04/08 01:35:36;;;;;;;10.13;8.40;;;;;;;;;;5072875;28;20021;-62
2023/04/08 01:38:05;;;;;;;10.85;8.73;;;;;;;;;;5072865;28;20673;-64
2023/04/08 01:40:33;;;;;;;9.60;8.05;;;;;;;;;;5071191;28;20387;-61
2023/04/08 01:43:00;;;;;;;10.07;7.88;;;;;;;;;;5071419;28;20472;-61
2023/04/08 01:45:27;;;;;;;12.27;8.60;;;;;;;;;;5072437;28;20020;-64
2023/04/08 01:47:55;;;;;;;9.45;8.07;;;;;;;;;;5072684;28;20384;-62
2023/04/08 01:50:21;;;;;;;10.52;8.35;;;;;;;;;;5071266;28;20029;-65
2023/04/08 01:52:48;;;;;;;8.98;7.57;;;;;;;;;;5072052;28;20066;-64
2023/04/08 01:55:15;;;;;;;10.73;8.27;;;;;;;;;;5072319;28;20097;-65
2023/04/08 01:57:45;;;;;;;9.48;7.70;;;;;;;;;;5072522;28;20020;-64
2023/04/08 02:00:12;;;;;;;9.35;8.05;;;;;;;;;;5070379;28;20060;-65
2023/04/08 02:02:41;;;;;;;10.15;8.07;;;;;;;;;;5072153;28;20055;-64
2023/04/08 02:05:07;;;;;;;10.50;8.87;;;;;;;;;;5071765;28;20043;-65
2023/04/08 02:07:33;;;;;;;9.32;8.32;;;;;;;;;;5071736;28;20032;-66
2023/04/08 02:09:59;;;;;;;9.15;7.85;;;;;;;;;;5072382;28;20031;-61
2023/04/08 02:12:26;;;;;;;9.50;7.68;;;;;;;;;;5072710;28;20028;-62
2023/04/08 02:14:52;;;;;;;8.85;7.40;;;;;;;;;;5071408;28;20099;-61
2023/04/08 02:17:59;;;;;;;8.40;7.50;;;;;;;;;;5072921;28;20025;-62
2023/04/08 02:20:42;;;;;;;8.38;7.45;;;;;;;;;;5072978;28;20035;-63
2023/04/08 02:23:16;;;;;;;9.35;7.47;;;;;;;;;;5073187;28;20108;-63
2023/04/08 02:25:44;;;;;;;11.52;7.38;;;;;;;;;;5073207;28;20052;-61
2023/04/08 02:28:11;;;;;;;9.63;7.32;;;;;;;;;;5071367;28;20020;-61
2023/04/08 02:30:43;;;;;;;8.57;7.68;;;;;;;;;;5072766;28;20032;-62
2023/04/08 02:33:10;;;;;;;9.32;7.70;;;;;;;;;;5073030;28;20032;-62
2023/04/08 02:35:39;;;;;;;9.25;7.78;;;;;;;;;;5072881;28;20037;-61
2023/04/08 02:38:04;;;;;;;8.45;7.10;;;;;;;;;;5072619;28;20020;-61
2023/04/08 02:40:32;;;;;;;9.80;7.65;;;;;;;;;;5072516;28;20026;-61
2023/04/08 02:42:58;;;;;;;8.75;7.15;;;;;;;;;;5072553;28;20021;-61
2023/04/08 02:45:31;;;;;;;11.02;8.18;;;;;;;;;;5072537;28;20028;-61
2023/04/08 02:48:00;;;;;;;8.65;7.07;;;;;;;;;;5072506;28;20541;-61
2023/04/08 02:50:25;;;;;;;9.73;7.93;;;;;;;;;;5072655;28;20036;-61
2023/04/08 02:52:51;;;;;;;9.48;7.43;;;;;;;;;;5072210;28;20519;-62
2023/04/08 02:55:16;;;;;;;9.75;7.18;;;;;;;;;;5072413;28;20033;-62
2023/04/08 02:57:42;;;;;;;9.18;7.63;;;;;;;;;;5072705;28;20024;-62
2023/04/08 03:00:08;;;;;;;10.07;7.40;;;;;;;;;;5072371;28;20021;-64
2023/04/08 03:02:34;;;;;;;9.07;7.32;;;;;;;;;;5072360;28;20028;-64
2023/04/08 03:05:00;;;;;;;8.50;7.55;;;;;;;;;;5072686;28;20020;-61
2023/04/08 03:07:26;;;;;;;9.38;6.90;;;;;;;;;;5072653;28;20464;-61
2023/04/08 03:09:53;;;;;;;9.68;7.18;;;;;;;;;;5072255;28;20523;-63
2023/04/08 03:12:20;;;;;;;9.70;7.22;;;;;;;;;;5072591;28;20111;-62
2023/04/08 03:14:45;;;;;;;8.68;7.28;;;;;;;;;;5072237;28;20032;-61
2023/04/08 03:17:11;;;;;;;8.70;7.22;;;;;;;;;;5072313;28;20020;-61
2023/04/08 03:19:36;;;;;;;9.68;7.10;;;;;;;;;;5072254;28;20151;-63
2023/04/08 03:22:02;;;;;;;9.00;7.50;;;;;;;;;;5072148;28;20154;-62
2023/04/08 03:24:27;;;;;;;9.45;6.90;;;;;;;;;;5072120;28;20032;-63
2023/04/08 03:26:53;;;;;;;8.00;6.78;;;;;;;;;;5072148;28;20029;-64
2023/04/08 03:29:18;;;;;;;7.75;6.85;;;;;;;;;;5070762;28;20025;-65
2023/04/08 03:31:44;;;;;;;7.70;6.90;;;;;;;;;;5072022;28;20024;-64
2023/04/08 03:34:09;;;;;;;9.73;7.20;;;;;;;;;;5072020;28;20054;-64
2023/04/08 03:36:35;;;;;;;9.13;6.65;;;;;;;;;;5072138;28;20049;-64
2023/04/08 03:39:02;;;;;;;8.07;7.03;;;;;;;;;;5072038;28;20070;-64
2023/04/08 03:41:28;;;;;;;8.07;7.07;;;;;;;;;;5075424;28;20048;-64
2023/04/08 03:43:54;;;;;;;8.43;7.07;;;;;;;;;;5075984;28;20055;-64
2023/04/08 03:46:21;;;;;;;7.78;6.68;;;;;;;;;;5076178;28;20028;-65
2023/04/08 03:48:47;;;;;;;7.43;6.60;;;;;;;;;;5076058;28;20033;-64
2023/04/08 03:51:12;;;;;;;9.80;7.15;;;;;;;;;;5075816;28;20380;-64
2023/04/08 03:53:38;;;;;;;8.70;7.25;;;;;;;;;;5075563;28;20097;-65
2023/04/08 03:56:04;;;;;;;8.40;7.15;;;;;;;;;;5091488;28;20377;-61
2023/04/08 03:58:30;;;;;;;9.05;7.65;;;;;;;;;;5075666;28;20016;-61
2023/04/08 04:00:56;;;;;;;8.02;6.60;;;;;;;;;;5075560;28;20029;-62
2023/04/08 04:03:21;;;;;;;8.02;6.90;;;;;;;;;;5075547;28;20036;-61
2023/04/08 04:05:47;;;;;;;8.65;6.93;;;;;;;;;;5075465;28;20016;-62
2023/04/08 04:08:12;;;;;;;9.10;7.05;;;;;;;;;;5075458;28;20020;-61
2023/04/08 04:10:38;;;;;;;8.65;6.85;;;;;;;;;;5075331;28;20024;-64
2023/04/08 04:13:04;;;;;;;7.70;6.90;;;;;;;;;;5075309;28;20090;-64
2023/04/08 04:15:30;;;;;;;7.57;6.72;;;;;;;;;;5075374;28;20032;-65
2023/04/08 04:17:56;;;;;;;8.10;6.68;;;;;;;;;;5075266;28;20024;-64
2023/04/08 04:20:21;;;;;;;8.15;7.00;;;;;;;;;;5075203;28;20032;-65
2023/04/08 04:22:47;;;;;;;10.52;6.45;;;;;;;;;;5075143;28;20413;-65
2023/04/08 04:25:13;;;;;;;8.07;7.22;;;;;;;;;;5075192;28;20025;-63
2023/04/08 04:27:38;;;;;;;8.90;7.15;;;;;;;;;;5057221;28;20035;-65
2023/04/08 04:30:04;;;;;;;9.25;6.97;;;;;;;;;;5075090;28;20075;-63
2023/04/08 04:32:30;;;;;;;9.00;7.07;;;;;;;;;;5075093;28;20024;-61
2023/04/08 04:34:56;;;;;;;8.75;6.80;;;;;;;;;;5075047;28;20028;-61
2023/04/08 04:37:21;;;;;;;8.18;6.60;;;;;;;;;;5075010;28;20055;-61
2023/04/08 04:39:47;;;;;;;8.10;7.07;;;;;;;;;;5075202;28;20115;-61
2023/04/08 04:42:13;;;;;;;8.10;6.70;;;;;;;;;;5074930;28;20021;-65
2023/04/08 04:44:38;;;;;;;8.48;7.18;;;;;;;;;;5075180;28;20032;-65
2023/04/08 04:47:04;;;;;;;7.88;6.22;;;;;;;;;;5074767;28;20027;-65
2023/04/08 04:49:30;;;;;;;7.25;6.53;;;;;;;;;;5074747;28;20032;-64
2023/04/08 04:51:58;;;;;;;7.65;6.47;;;;;;;;;;5073634;28;20028;-65
2023/04/08 04:54:24;;;;;;;7.32;6.55;;;;;;;;;;5054795;28;20033;-64
2023/04/08 04:56:51;;;;;;;7.68;6.88;;;;;;;;;;5054538;28;20052;-65
2023/04/08 04:59:17;;;;;;;7.22;6.47;;;;;;;;;;5053687;28;20029;-65
2023/04/08 05:01:42;;;;;;;7.15;6.45;;;;;;;;;;5054817;28;20540;-64
2023/04/08 05:04:08;;;;;;;6.93;6.22;;;;;;;;;;5053625;28;20090;-64
2023/04/08 05:06:33;;;;;;;7.78;6.65;;;;;;;;;;5054416;28;20721;-64
2023/04/08 05:08:59;;;;;;;9.05;6.57;;;;;;;;;;5054338;28;20056;-65
2023/04/08 05:11:25;;;;;;;8.48;7.07;;;;;;;;;;5054332;28;20025;-61
2023/04/08 05:13:50;;;;;;;8.90;6.78;;;;;;;;;;5054330;28;20473;-62
2023/04/08 05:16:16;;;;;;;8.10;6.82;;;;;;;;;;5054309;28;20028;-64
2023/04/08 05:18:42;;;;;;;8.48;6.70;;;;;;;;;;5054264;28;20029;-63
2023/04/08 05:21:07;;;;;;;7.80;6.60;;;;;;;;;;5054168;28;20032;-61
2023/04/08 05:23:36;;;;;;;7.57;6.57;;;;;;;;;;5054183;28;20029;-61
2023/04/08 05:26:01;;;;;;;8.15;6.55;;;;;;;;;;5054035;28;20036;-61
2023/04/08 05:28:27;;;;;;;7.05;6.28;;;;;;;;;;5054129;28;20021;-65
2023/04/08 05:30:53;;;;;;;8.07;6.47;;;;;;;;;;5053958;28;20032;-64
2023/04/08 05:33:19;;;;;;;7.63;6.88;;;;;;;;;;5053853;28;20053;-64
2023/04/08 05:35:45;;;;;;;7.32;6.45;;;;;;;;;;5053837;28;20024;-65
2023/04/08 05:38:11;;;;;;;8.10;6.93;;;;;;;;;;5053743;28;20036;-61
2023/04/08 05:40:36;;;;;;;7.05;6.13;;;;;;;;;;5053754;28;20029;-63
2023/04/08 05:43:02;;;;;;;7.07;6.22;;;;;;;;;;5053742;28;20029;-63
2023/04/08 05:45:28;;;;;;;7.00;6.18;;;;;;;;;;5053594;28;20024;-62
2023/04/08 05:47:54;;;;;;;8.52;6.75;;;;;;;;;;5053843;28;20480;-62
2023/04/08 05:50:19;;;;;;;7.63;6.75;;;;;;;;;;5053471;28;20515;-61
2023/04/08 05:52:45;;;;;;;8.23;6.28;;;;;;;;;;5059839;28;20072;-61
2023/04/08 05:55:12;;;;;;;8.55;6.40;;;;;;;;;;5073450;28;20025;-62
2023/04/08 05:57:37;;;;;;;7.13;6.43;;;;;;;;;;5073398;28;20388;-61
2023/04/08 06:00:08;;;;;;;7.22;6.43;;;;;;;;;;5073404;28;20029;-61
2023/04/08 06:02:35;;;;;;;7.03;6.32;;;;;;;;;;5073249;28;20040;-64
2023/04/08 06:05:01;;;;;;;7.35;6.65;;;;;;;;;;5073270;28;20150;-64
2023/04/08 06:07:26;;;;;;;6.82;6.13;;;;;;;;;;5073341;28;20028;-61
2023/04/08 06:09:52;;;;;;;7.10;6.35;;;;;;;;;;5071858;28;20178;-65
2023/04/08 06:12:17;;;;;;;6.57;5.95;;;;;;;;;;5073137;28;20451;-62
2023/04/08 06:14:43;;;;;;;7.90;6.50;;;;;;;;;;5073140;28;20028;-61
2023/04/08 06:17:09;;;;;;;7.15;6.20;;;;;;;;;;5073056;28;20025;-64
2023/04/08 06:19:34;;;;;;;7.57;6.35;;;;;;;;;;5073046;28;20066;-64
2023/04/08 06:22:00;;;;;;;7.93;6.45;;;;;;;;;;5072962;28;20055;-63
2023/04/08 06:24:26;;;;;;;7.75;6.43;;;;;;;;;;5072889;28;20016;-61
2023/04/08 06:26:53;;;;;;;7.60;6.25;;;;;;;;;;5072868;28;20032;-64
2023/04/08 06:29:20;;;;;;;8.15;6.55;;;;;;;;;;5072804;28;20362;-61
2023/04/08 06:31:45;;;;;;;8.27;6.32;;;;;;;;;;5071500;28;20025;-63
2023/04/08 06:34:11;;;;;;;6.88;6.13;;;;;;;;;;5072806;28;20023;-61
2023/04/08 06:36:36;;;;;;;7.10;6.20;;;;;;;;;;5071482;28;20032;-64
2023/04/08 06:39:03;;;;;;;7.03;6.32;;;;;;;;;;5072721;28;20035;-61
2023/04/08 06:41:29;;;;;;;8.70;6.50;;;;;;;;;;5072935;28;20422;-63
2023/04/08 06:43:54;;;;;;;8.48;6.10;;;;;;;;;;5072647;28;20032;-65
2023/04/08 06:46:20;;;;;;;7.70;6.38;;;;;;;;;;5072679;28;20143;-64
2023/04/08 06:48:46;;;;;;;7.65;6.28;;;;;;;;;;5072536;28;20033;-64
2023/04/08 06:51:11;;;;;;;6.95;5.97;;;;;;;;;;5072599;28;20028;-65
2023/04/08 06:53:37;;;;;;;7.07;6.38;;;;;;;;;;5072373;28;20392;-64
2023/04/08 06:56:03;;;;;;;7.30;6.45;;;;;;;;;;5072468;28;20029;-63
2023/04/08 06:58:28;;;;;;;8.63;7.03;;;;;;;;;;5072489;28;20024;-64
2023/04/08 07:00:55;;;;;;;7.47;6.15;;;;;;;;;;5072476;28;20034;-61
2023/04/08 07:03:21;;;;;;;6.93;6.15;;;;;;;;;;5072770;28;20025;-61
2023/04/08 07:05:47;;;;;;;7.35;6.30;;;;;;;;;;5072476;28;20541;-61
2023/04/08 07:08:12;;;;;;;7.65;6.47;;;;;;;;;;5072420;28;20025;-62
2023/04/08 07:10:38;;;;;;;7.55;6.47;;;;;;;;;;5072344;28;20074;-61
2023/04/08 07:13:04;;;;;;;8.02;6.35;;;;;;;;;;5072612;28;20066;-61
2023/04/08 07:15:29;;;;;;;7.05;6.32;;;;;;;;;;5071730;28;20491;-61
2023/04/08 07:17:56;;;;;;;6.65;5.95;;;;;;;;;;5072218;28;20023;-61
2023/04/08 07:20:22;;;;;;;6.93;6.05;;;;;;;;;;5070913;28;20448;-63
2023/04/08 07:22:48;;;;;;;7.63;6.47;;;;;;;;;;5072209;28;20103;-60
2023/04/08 07:25:14;;;;;;;6.90;6.20;;;;;;;;;;5072200;28;20481;-63
2023/04/08 07:27:40;;;;;;;9.15;6.53;;;;;;;;;;5072253;28;20039;-61
2023/04/08 07:30:06;;;;;;;7.38;6.10;;;;;;;;;;5072074;28;20032;-61
2023/04/08 07:32:33;;;;;;;7.60;6.18;;;;;;;;;;5072428;28;20024;-62
2023/04/08 07:34:59;;;;;;;6.65;5.95;;;;;;;;;;5072161;28;20070;-62
2023/04/08 07:37:28;;;;;;;7.72;6.55;;;;;;;;;;5072077;28;20045;-61
2023/04/08 07:39:54;;;;;;;7.63;5.97;;;;;;;;;;5071968;28;20036;-61
2023/04/08 07:42:19;;;;;;;7.60;6.68;;;;;;;;;;5072013;28;20134;-62
2023/04/08 07:44:45;;;;;;;6.95;6.25;;;;;;;;;;5071929;28;20507;-61
2023/04/08 07:47:11;;;;;;;7.22;6.07;;;;;;;;;;5071909;28;20020;-61
2023/04/08 07:49:37;;;;;;;7.07;6.13;;;;;;;;;;5071692;28;20029;-61
2023/04/08 07:52:04;;;;;;;8.40;6.50;;;;;;;;;;5071952;28;20538;-63
2023/04/08 07:54:32;;;;;;;7.10;6.35;;;;;;;;;;5072145;28;20020;-61
2023/04/08 07:56:58;;;;;;;7.30;6.22;;;;;;;;;;5071745;28;20038;-62
2023/04/08 07:59:24;;;;;;;6.93;6.05;;;;;;;;;;5071656;28;20028;-62
2023/04/08 08:01:49;;;;;;;7.57;6.75;;;;;;;;;;5071734;28;20078;-64
2023/04/08 08:04:15;;;;;;;7.50;6.00;;;;;;;;;;5071622;28;20082;-64
2023/04/08 08:06:41;;;;;;;7.65;5.80;;;;;;;;;;5071802;28;20111;-65
2023/04/08 08:09:06;;;;;;;6.65;5.93;;;;;;;;;;5071690;28;20059;-64
2023/04/08 08:11:32;;;;;;;7.00;6.28;;;;;;;;;;5071782;28;20028;-64
2023/04/08 08:13:57;;;;;;;6.70;6.00;;;;;;;;;;5071849;28;20031;-61
2023/04/08 08:16:27;;;;;;;6.85;5.80;;;;;;;;;;5071660;28;20024;-61
2023/04/08 08:18:53;;;;;;;7.15;6.20;;;;;;;;;;5071673;28;20073;-61
2023/04/08 08:21:18;;;;;;;6.60;5.93;;;;;;;;;;5071567;28;20103;-61
2023/04/08 08:23:44;;;;;;;6.70;6.00;;;;;;;;;;5071459;28;20102;-61
2023/04/08 08:26:09;;;;;;;7.72;6.43;;;;;;;;;;5071831;28;20034;-62
2023/04/08 08:28:38;;;;;;;6.88;5.95;;;;;;;;;;5074803;28;20024;-61
2023/04/08 08:31:04;;;;;;;7.97;5.93;;;;;;;;;;5074965;28;20029;-61
2023/04/08 08:33:31;;;;;;;7.50;6.35;;;;;;;;;;5075089;28;20024;-61
2023/04/08 08:35:57;;;;;;;7.43;6.30;;;;;;;;;;5075078;28;20035;-61
2023/04/08 08:38:23;;;;;;;8.05;6.00;;;;;;;;;;5074957;28;20119;-62
2023/04/08 08:40:56;;;;;;;6.85;5.95;;;;;;;;;;5075291;28;20543;-62
2023/04/08 08:43:26;;;;;;;6.90;5.80;;;;;;;;;;5074447;28;20487;-64
2023/04/08 08:45:52;;;;;;;7.57;6.38;;;;;;;;;;5073020;28;20029;-63
2023/04/08 08:48:18;;;;;;;7.97;6.30;;;;;;;;;;5073410;28;20055;-64
2023/04/08 08:50:44;;;;;;;7.13;6.40;;;;;;;;;;5072832;28;20044;-63
2023/04/08 08:53:10;;;;;;;6.57;5.63;;;;;;;;;;5073534;28;20091;-64
2023/04/08 08:55:37;;;;;;;7.25;5.82;;;;;;;;;;5073972;28;20372;-63
2023/04/08 08:58:03;;;;;;;7.13;6.15;;;;;;;;;;5073964;28;20020;-63
2023/04/08 09:00:35;;;;;;;7.32;6.18;;;;;;;;;;5074523;28;20039;-63
2023/04/08 09:03:20;;;;;;;6.10;5.50;;;;;;;;;;5074546;28;20033;-64
2023/04/08 09:05:53;;;;;;;8.23;6.65;;;;;;;;;;5074725;28;20082;-62
2023/04/08 09:08:28;;;;;;;7.03;5.78;;;;;;;;;;5074667;28;20063;-63
2023/04/08 09:10:55;;;;;;;6.10;5.50;;;;;;;;;;5074290;28;20468;-65
2023/04/08 09:13:22;;;;;;;6.60;5.90;;;;;;;;;;5074637;28;20058;-64
2023/04/08 09:16:04;;;;;;;6.82;5.82;;;;;;;;;;5074652;28;20059;-63
2023/04/08 09:18:31;;;;;;;6.57;5.85;;;;;;;;;;5074564;28;20021;-63
2023/04/08 09:21:01;;;;;;;6.63;5.68;;;;;;;;;;5074201;28;20028;-63
2023/04/08 09:23:40;;;;;;;6.50;5.80;;;;;;;;;;5074449;28;20380;-62
2023/04/08 09:26:10;;;;;;;6.65;5.93;;;;;;;;;;5074119;28;20048;-62
2023/04/08 09:28:37;;;;;;;6.25;5.47;;;;;;;;;;5073259;28;20047;-62
2023/04/08 09:31:22;;;;;;;6.65;5.75;;;;;;;;;;5073923;28;20089;-62
2023/04/08 09:34:01;;;;;;;7.30;5.60;;;;;;;;;;5073977;28;20020;-63
2023/04/08 09:36:27;;;;;;;6.30;5.55;;;;;;;;;;5073868;28;20027;-62
2023/04/08 09:38:54;;;;;;;6.50;5.68;;;;;;;;;;5073425;28;20032;-62
2023/04/08 09:41:20;;;;;;;7.13;6.25;;;;;;;;;;5073832;28;20059;-62
2023/04/08 09:43:57;;;;;;;7.07;5.85;;;;;;;;;;5073752;28;20028;-62
2023/04/08 09:46:38;;;;;;;6.00;5.40;;;;;;;;;;5073663;28;20058;-62
2023/04/08 09:49:11;;;;;;;6.90;5.72;;;;;;;;;;5073618;28;20039;-62
2023/04/08 09:51:48;;;;;;;6.53;5.90;;;;;;;;;;5073633;28;20029;-63
2023/04/08 09:54:19;;;;;;;6.95;6.10;;;;;;;;;;5073381;28;20041;-62
2023/04/08 09:56:58;;;;;;;6.70;5.82;;;;;;;;;;5073500;28;20431;-63
2023/04/08 09:59:30;;;;;;;6.45;5.53;;;;;;;;;;5073486;28;20024;-64
2023/04/08 10:02:00;;;;;;;7.05;5.70;;;;;;;;;;5073350;28;20472;-62
2023/04/08 10:04:28;;;;;;;5.75;5.25;;;;;;;;;;5073547;28;20085;-62
2023/04/08 10:06:59;;;;;;;6.53;5.82;;;;;;;;;;5073526;28;20119;-64
2023/04/08 10:09:26;;;;;;;7.00;5.38;;;;;;;;;;5073153;28;20035;-63
2023/04/08 10:11:52;;;;;;;6.18;5.50;;;;;;;;;;5073166;28;20028;-64
2023/04/08 10:14:20;;;;;;;6.18;5.57;;;;;;;;;;5073090;28;20039;-64
2023/04/08 10:16:46;;;;;;;6.10;5.47;;;;;;;;;;5073355;28;20028;-63
2023/04/08 10:19:39;;;;;;;7.47;5.32;;;;;;;;;;5073343;28;20117;-64
2023/04/08 10:22:27;;;;;;;7.03;5.38;;;;;;;;;;5072959;28;20036;-64
2023/04/08 10:25:15;;;;;;;6.00;5.40;;;;;;;;;;5072811;28;20017;-65
2023/04/08 10:27:42;;;;;;;6.43;5.82;;;;;;;;;;5072954;28;20040;-64
2023/04/08 10:30:32;;;;;;;6.22;5.60;;;;;;;;;;5071823;28;20056;-63
2023/04/08 10:32:59;;;;;;;6.53;5.32;;;;;;;;;;5073074;28;20420;-63
2023/04/08 10:35:33;;;;;;;6.97;6.15;;;;;;;;;;5072780;28;20036;-63
2023/04/08 10:38:00;;;;;;;6.15;4.97;;;;;;;;;;5073069;28;20423;-62
2023/04/08 10:40:26;;;;;;;6.70;5.93;;;;;;;;;;5072673;28;20021;-62
2023/04/08 10:42:55;;;;;;;6.53;5.80;;;;;;;;;;5072640;28;20239;-63
2023/04/08 10:45:21;;;;;;;6.28;5.68;;;;;;;;;;5072931;28;20024;-62
2023/04/08 10:47:47;;;;;;;6.80;5.68;;;;;;;;;;5072591;28;20445;-62
2023/04/08 10:50:14;;;;;;;6.70;5.70;;;;;;;;;;5072016;28;20095;-62
2023/04/08 10:52:50;;;;;;;5.80;5.20;;;;;;;;;;5072513;28;20044;-63
2023/04/08 10:55:25;;;;;;;6.72;5.47;;;;;;;;;;5072580;28;20476;-62
2023/04/08 10:57:50;;;;;;;6.32;5.30;;;;;;;;;;5072550;28;20024;-62
2023/04/08 11:00:32;;;;;;;6.65;5.53;;;;;;;;;;5072737;28;20099;-63
2023/04/08 11:03:05;;;;;;;6.32;5.30;;;;;;;;;;5072719;28;20376;-62
2023/04/08 11:05:32;;;;;;;6.00;5.40;;;;;;;;;;5071986;28;20036;-62
2023/04/08 11:08:00;;;;;;;7.10;5.47;;;;;;;;;;5066943;28;20158;-63
2023/04/08 11:10:27;;;;;;;6.70;5.25;;;;;;;;;;5067478;28;20039;-63
2023/04/08 11:12:55;;;;;;;6.97;5.78;;;;;;;;;;5067662;28;20073;-62
2023/04/08 11:15:23;;;;;;;6.10;5.20;;;;;;;;;;5067841;28;20384;-62
2023/04/08 11:17:49;;;;;;;5.97;5.30;;;;;;;;;;5065831;28;20028;-62
2023/04/08 11:20:15;;;;;;;6.10;5.50;;;;;;;;;;5067984;28;20353;-64
2023/04/08 11:22:41;;;;;;;5.72;5.22;;;;;;;;;;5066655;28;20021;-63
2023/04/08 11:25:09;;;;;;;6.78;5.75;;;;;;;;;;5067356;28;20557;-63
2023/04/08 11:27:35;;;;;;;5.90;5.28;;;;;;;;;;5077175;28;20028;-62
2023/04/08 11:30:02;;;;;;;6.03;5.43;;;;;;;;;;5070814;28;20040;-61
2023/04/08 11:32:28;;;;;;;5.88;5.25;;;;;;;;;;5071163;28;20063;-61
2023/04/08 11:34:54;;;;;;;6.28;5.57;;;;;;;;;;5072111;28;20032;-62
2023/04/08 11:37:20;;;;;;;5.95;5.40;;;;;;;;;;5072161;28;20099;-61
2023/04/08 11:39:45;;;;;;;5.80;5.20;;;;;;;;;;5072344;28;20052;-63
2023/04/08 11:42:28;;;;;;;5.80;5.20;;;;;;;;;;5072270;28;20353;-62
2023/04/08 11:44:54;;;;;;;6.28;5.55;;;;;;;;;;5067293;28;20024;-62
2023/04/08 11:47:20;;;;;;;5.13;4.63;;;;;;;;;;5068573;28;20032;-62
2023/04/08 11:49:46;;;;;;;5.72;5.13;;;;;;;;;;5071609;28;20029;-64
2023/04/08 11:52:12;;;;;;;5.53;4.97;;;;;;;;;;5071501;28;20024;-64
2023/04/08 11:54:41;;;;;;;6.13;5.43;;;;;;;;;;5071804;28;20032;-63
2023/04/08 11:57:08;;;;;;;7.22;5.50;;;;;;;;;;5071924;28;20028;-62
2023/04/08 11:59:37;;;;;;;5.60;5.03;;;;;;;;;;5071846;28;20042;-65
2023/04/08 12:02:03;;;;;;;6.30;5.05;;;;;;;;;;5074450;28;20067;-65
2023/04/08 12:04:29;;;;;;;5.07;4.57;;;;;;;;;;5075908;28;20040;-65
2023/04/08 12:06:55;;;;;;;5.80;5.20;;;;;;;;;;5075273;28;20403;-65
2023/04/08 12:09:21;;;;;;;5.43;4.85;;;;;;;;;;5075075;28;20139;-64
2023/04/08 12:11:46;;;;;;;5.28;4.78;;;;;;;;;;5075381;28;20067;-64
2023/04/08 12:14:12;;;;;;;5.45;4.95;;;;;;;;;;5075246;28;20025;-63
2023/04/08 12:16:38;;;;;;;6.35;5.22;;;;;;;;;;5074202;28;20016;-62
2023/04/08 12:19:05;;;;;;;11.02;5.43;;;;;;;;;;5075360;28;20029;-62
2023/04/08 12:21:31;;;;;;;5.85;5.25;;;;;;;;;;5085958;28;20107;-63
2023/04/08 12:23:57;;;;;;;5.25;4.75;;;;;;;;;;5095518;28;20023;-62
2023/04/08 12:26:23;;;;;;;5.28;4.78;;;;;;;;;;5095437;28;20028;-63
2023/04/08 12:28:48;;;;;;;5.40;4.78;;;;;;;;;;5095374;28;20020;-62
2023/04/08 12:31:14;;;;;;;5.53;4.90;;;;;;;;;;5095246;28;20494;-64
2023/04/08 12:33:40;;;;;;;5.32;4.82;;;;;;;;;;5095291;28;20024;-64
2023/04/08 12:36:05;;;;;;;5.88;5.22;;;;;;;;;;5094978;28;20020;-64
2023/04/08 12:38:32;;;;;;;5.50;4.97;;;;;;;;;;5095105;28;20024;-64
2023/04/08 12:40:58;;;;;;;6.28;5.28;;;;;;;;;;5095144;28;20031;-64
2023/04/08 12:43:23;;;;;;;6.20;5.20;;;;;;;;;;5094788;28;20024;-63
2023/04/08 12:45:50;;;;;;;5.45;4.95;;;;;;;;;;5093496;28;20495;-63
2023/04/08 12:48:15;;;;;;;5.40;4.68;;;;;;;;;;5093545;28;20383;-63
2023/04/08 12:50:41;;;;;;;6.53;4.82;;;;;;;;;;5094798;28;20024;-62
2023/04/08 12:53:07;;;;;;;5.28;4.75;;;;;;;;;;5094242;28;20545;-62
2023/04/08 12:55:32;;;;;;;5.70;5.10;;;;;;;;;;5092833;28;20028;-62
2023/04/08 12:57:58;;;;;;;6.70;5.03;;;;;;;;;;5094243;28;20095;-62
2023/04/08 13:00:24;;;;;;;5.70;5.10;;;;;;;;;;5094588;28;20028;-63
2023/04/08 13:02:51;;;;;;;7.05;5.32;;;;;;;;;;5094849;28;20031;-63
2023/04/08 13:05:17;;;;;;;5.28;4.70;;;;;;;;;;5094528;28;20108;-63
2023/04/08 13:07:42;;;;;;;5.82;5.22;;;;;;;;;;5094677;28;20107;-64
2023/04/08 13:10:08;;;;;;;5.30;4.80;;;;;;;;;;5094546;28;20028;-62
2023/04/08 13:12:34;;;;;;;5.95;5.13;;;;;;;;;;5092687;28;20032;-62
2023/04/08 13:15:00;;;;;;;5.70;4.90;;;;;;;;;;5094485;28;20466;-65
2023/04/08 13:17:26;;;;;;;5.60;4.88;;;;;;;;;;5076248;28;20115;-64
2023/04/08 13:19:52;;;;;;;5.57;5.00;;;;;;;;;;5093144;28;20107;-64
2023/04/08 13:22:18;;;;;;;5.68;5.13;;;;;;;;;;5094242;28;20568;-64
2023/04/08 13:24:43;;;;;;;8.80;5.10;;;;;;;;;;5094256;28;20408;-64
2023/04/08 13:27:09;;;;;;;5.13;4.68;;;;;;;;;;5094128;28;20043;-64
2023/04/08 13:29:34;;;;;;;5.13;4.50;;;;;;;;;;5094068;28;20032;-63
2023/04/08 13:32:00;;;;;;;6.35;5.07;;;;;;;;;;5094090;28;20468;-64
2023/04/08 13:34:26;;;;;;;5.50;4.90;;;;;;;;;;5094390;28;20031;-62
2023/04/08 13:36:53;;;;;;;5.50;4.90;;;;;;;;;;5094045;28;20058;-62
2023/04/08 13:39:19;;;;;;;5.25;4.75;;;;;;;;;;5093920;28;20032;-63
2023/04/08 13:41:45;;;;;;;5.72;5.22;;;;;;;;;;5093999;28;20020;-63
2023/04/08 13:44:12;;;;;;;5.75;5.15;;;;;;;;;;5093903;28;20021;-64
2023/04/08 13:46:38;;;;;;;6.05;4.70;;;;;;;;;;5094036;28;20020;-63
2023/04/08 13:49:03;;;;;;;5.22;4.72;;;;;;;;;;5093746;28;20020;-63
2023/04/08 13:51:30;;;;;;;5.30;4.78;;;;;;;;;;5093972;28;20545;-63
2023/04/08 13:53:56;;;;;;;6.07;5.40;;;;;;;;;;5093520;28;20093;-63
2023/04/08 13:56:21;;;;;;;6.45;5.25;;;;;;;;;;5093916;28;20464;-64
2023/04/08 13:58:47;;;;;;;6.05;4.70;;;;;;;;;;5093935;28;20103;-63
2023/04/08 14:01:12;;;;;;;5.57;5.07;;;;;;;;;;5093841;28;20464;-63
2023/04/08 14:03:38;;;;;;;5.03;4.53;;;;;;;;;;5093783;28;20521;-62
2023/04/08 14:06:03;;;;;;;5.18;4.68;;;;;;;;;;5093529;28;20020;-63
2023/04/08 14:08:29;;;;;;;5.72;5.22;;;;;;;;;;5093327;28;20056;-63
2023/04/08 14:10:55;;;;;;;5.20;4.70;;;;;;;;;;5093289;28;20031;-62
2023/04/08 14:13:21;;;;;;;5.45;4.95;;;;;;;;;;5093327;28;20463;-62
2023/04/08 14:15:48;;;;;;;5.45;4.95;;;;;;;;;;5093559;28;20024;-64
2023/04/08 14:18:16;;;;;;;5.20;4.68;;;;;;;;;;5092781;28;20062;-62
2023/04/08 14:20:41;;;;;;;5.05;4.55;;;;;;;;;;5091719;28;20426;-62
2023/04/08 14:23:07;;;;;;;6.07;4.82;;;;;;;;;;5091427;28;20032;-62
2023/04/08 14:25:33;;;;;;;5.43;4.88;;;;;;;;;;5091392;28;20020;-62
2023/04/08 14:27:58;;;;;;;5.53;4.90;;;;;;;;;;5091477;28;20045;-63
2023/04/08 14:30:25;;;;;;;5.60;5.00;;;;;;;;;;5091622;28;20115;-64
2023/04/08 14:32:51;;;;;;;5.70;4.90;;;;;;;;;;5091721;28;20024;-63
2023/04/08 14:35:16;;;;;;;5.55;4.93;;;;;;;;;;5091278;28;20116;-62
2023/04/08 14:37:42;;;;;;;5.07;4.57;;;;;;;;;;5091502;28;20544;-62
2023/04/08 14:40:08;;;;;;;5.25;4.75;;;;;;;;;;5091289;28;20024;-63
2023/04/08 14:42:34;;;;;;;5.47;4.97;;;;;;;;;;5091554;28;20023;-62